createdAt,value
2018-05-02T00:01:35.374Z,82.58
2018-05-02T00:04:02.841Z,83.15
2018-05-02T00:06:30.286Z,83.49
2018-05-02T00:08:57.757Z,83.32
2018-05-02T00:11:25.207Z,83.00
2018-05-02T00:13:52.694Z,83.35
2018-05-02T00:16:20.141Z,83.00
2018-05-02T00:18:47.618Z,82.60
2018-05-02T00:21:15.073Z,82.59
2018-05-02T00:23:42.550Z,82.95
2018-05-02T00:26:09.996Z,83.33
2018-05-02T00:28:37.481Z,83.18
2018-05-02T00:31:04.929Z,83.38
2018-05-02T00:33:32.405Z,83.55
2018-05-02T00:35:59.854Z,83.71
2018-05-02T00:38:27.336Z,83.93
2018-05-02T00:40:54.800Z,84.06
2018-05-02T00:43:22.293Z,84.05
2018-05-02T00:45:49.749Z,84.13
2018-05-02T00:48:17.247Z,84.58
2018-05-02T00:50:44.698Z,84.52
2018-05-02T00:53:12.180Z,84.13
2018-05-02T00:55:39.645Z,84.29
2018-05-02T00:58:07.119Z,84.37
2018-05-02T01:00:34.573Z,84.40
2018-05-02T01:03:02.045Z,84.00
2018-05-02T01:05:29.507Z,83.55
2018-05-02T01:07:56.993Z,83.55
2018-05-02T01:10:24.444Z,83.66
2018-05-02T01:12:51.926Z,83.86
2018-05-02T01:15:19.385Z,84.14
2018-05-02T01:17:46.858Z,84.84
2018-05-02T01:20:14.309Z,84.89
2018-05-02T01:22:41.794Z,85.08
2018-05-02T01:25:09.242Z,85.02
2018-05-02T01:27:36.704Z,85.06
2018-05-02T01:30:04.183Z,85.18
2018-05-02T01:32:31.638Z,85.44
2018-05-02T01:34:59.118Z,85.42
2018-05-02T01:37:26.570Z,85.87
2018-05-02T01:39:54.041Z,85.86
2018-05-02T01:42:21.563Z,85.99
2018-05-02T01:44:48.991Z,86.36
2018-05-02T01:47:16.445Z,86.54
2018-05-02T01:49:43.917Z,86.88
2018-05-02T01:52:11.361Z,86.91
2018-05-02T01:54:38.838Z,87.10
2018-05-02T01:57:06.285Z,86.97
2018-05-02T01:59:33.763Z,86.65
2018-05-02T02:02:01.225Z,86.35
2018-05-02T02:04:28.710Z,85.86
2018-05-02T02:06:56.164Z,85.75
2018-05-02T02:09:23.658Z,85.81
2018-05-02T02:11:51.114Z,85.67
2018-05-02T02:14:18.594Z,85.61
2018-05-02T02:16:46.050Z,85.30
2018-05-02T02:19:13.540Z,85.62
2018-05-02T02:21:40.994Z,86.12
2018-05-02T02:24:08.475Z,86.09
2018-05-02T02:26:35.934Z,86.10
2018-05-02T02:29:03.406Z,86.28
2018-05-02T02:31:30.861Z,86.60
2018-05-02T02:33:58.460Z,86.79
2018-05-02T02:36:25.812Z,86.74
2018-05-02T02:38:53.290Z,86.61
2018-05-02T02:41:20.744Z,86.51
2018-05-02T02:43:48.229Z,86.47
2018-05-02T02:46:15.710Z,86.78
2018-05-02T02:48:43.186Z,86.89
2018-05-02T02:51:10.640Z,86.95
2018-05-02T02:53:38.113Z,86.87
2018-05-02T02:56:05.561Z,86.99
2018-05-02T02:58:33.068Z,87.31
2018-05-02T03:01:00.522Z,87.34
2018-05-02T03:03:27.969Z,87.85
2018-05-02T03:05:55.450Z,88.03
2018-05-02T03:08:22.907Z,88.02
2018-05-02T03:10:50.397Z,88.10
2018-05-02T03:13:17.845Z,88.10
2018-05-02T03:15:45.317Z,88.08
2018-05-02T03:18:12.765Z,88.05
2018-05-02T03:20:40.237Z,88.33
2018-05-02T03:23:07.692Z,88.57
2018-05-02T03:25:35.164Z,88.59
2018-05-02T03:28:02.610Z,88.40
2018-05-02T03:30:30.093Z,88.23
2018-05-02T03:32:57.537Z,88.08
2018-05-02T03:35:25.012Z,88.13
2018-05-02T03:37:52.471Z,88.04
2018-05-02T03:40:19.954Z,88.12
2018-05-02T03:42:47.410Z,88.05
2018-05-02T03:45:14.886Z,88.16
2018-05-02T03:47:42.341Z,88.35
2018-05-02T03:50:09.843Z,88.49
2018-05-02T03:52:37.306Z,88.45
2018-05-02T03:55:04.777Z,88.56
2018-05-02T03:57:32.226Z,88.33
2018-05-02T04:00:11.718Z,88.19
2018-05-02T04:02:50.930Z,87.88
2018-05-02T04:05:30.107Z,87.74
2018-05-02T04:07:57.562Z,87.64
2018-05-02T04:10:25.034Z,87.62
2018-05-02T04:12:52.477Z,87.49
2018-05-02T04:15:19.957Z,87.62
2018-05-02T04:17:47.413Z,87.90
2018-05-02T04:20:14.898Z,87.82
2018-05-02T04:22:42.345Z,87.53
2018-05-02T04:25:09.846Z,87.03
2018-05-02T04:27:37.302Z,86.47
2018-05-02T04:30:04.786Z,86.05
2018-05-02T04:32:32.233Z,85.44
2018-05-02T04:34:59.714Z,85.08
2018-05-02T04:37:27.169Z,84.89
2018-05-02T04:39:54.653Z,84.72
2018-05-02T04:42:22.115Z,83.88
2018-05-02T04:44:49.585Z,84.87
2018-05-02T04:47:17.033Z,84.84
2018-05-02T04:49:44.510Z,84.77
2018-05-02T04:55:17.432Z,84.43
2018-05-02T04:57:44.822Z,83.75
2018-05-02T05:00:12.299Z,83.58
2018-05-02T05:02:39.762Z,83.20
2018-05-02T05:05:07.244Z,83.83
2018-05-02T05:07:34.700Z,83.76
2018-05-02T05:10:02.175Z,83.91
2018-05-02T05:12:29.632Z,83.81
2018-05-02T05:14:57.106Z,83.52
2018-05-02T05:17:24.606Z,82.60
2018-05-02T05:19:52.098Z,81.65
2018-05-02T05:22:19.550Z,81.02
2018-05-02T05:24:47.000Z,81.96
2018-05-02T05:27:14.491Z,82.50
2018-05-02T05:29:41.945Z,83.36
2018-05-02T05:32:09.437Z,83.11
2018-05-02T05:34:36.894Z,82.55
2018-05-02T05:37:04.371Z,81.97
2018-05-02T05:39:31.821Z,82.33
2018-05-02T05:41:59.299Z,82.50
2018-05-02T05:44:26.745Z,83.05
2018-05-02T05:46:54.231Z,82.47
2018-05-02T05:49:21.687Z,81.87
2018-05-02T05:51:49.160Z,81.59
2018-05-02T05:54:16.628Z,80.24
2018-05-02T05:56:44.101Z,79.50
2018-05-02T05:59:11.554Z,79.25
2018-05-02T06:01:39.034Z,78.39
2018-05-02T06:04:06.494Z,78.10
2018-05-02T06:06:33.982Z,77.58
2018-05-02T06:09:02.285Z,77.83
2018-05-02T06:11:29.762Z,76.36
2018-05-02T06:13:57.221Z,75.94
2018-05-02T06:16:24.713Z,76.28
2018-05-02T06:18:52.252Z,76.51
2018-05-02T06:21:19.678Z,76.33
2018-05-02T06:23:47.130Z,76.75
2018-05-02T06:26:14.895Z,76.44
2018-05-02T06:28:42.338Z,76.66
2018-05-02T06:31:09.814Z,76.96
2018-05-02T06:33:37.279Z,77.40
2018-05-02T06:36:04.759Z,76.50
2018-05-02T06:38:32.209Z,75.35
2018-05-02T06:41:00.238Z,74.78
2018-05-02T06:43:27.785Z,74.91
2018-05-02T06:45:55.204Z,74.00
2018-05-02T06:48:22.659Z,73.19
2018-05-02T06:50:50.154Z,71.77
2018-05-02T06:53:17.622Z,69.57
2018-05-02T06:55:45.118Z,70.14
2018-05-02T06:58:12.582Z,70.92
2018-05-02T07:00:40.039Z,70.27
2018-05-02T07:03:07.517Z,69.97
2018-05-02T07:05:34.975Z,67.79
2018-05-02T07:08:02.454Z,67.52
2018-05-02T07:10:29.914Z,66.20
2018-05-02T07:12:57.418Z,67.57
2018-05-02T07:15:24.875Z,68.09
2018-05-02T07:17:52.357Z,69.33
2018-05-02T07:20:19.818Z,70.16
2018-05-02T07:25:20.993Z,71.32
2018-05-02T07:27:48.469Z,71.77
2018-05-02T07:30:15.933Z,70.22
2018-05-02T07:32:43.538Z,69.51
2018-05-02T07:35:10.967Z,68.56
2018-05-02T07:37:38.453Z,69.05
2018-05-02T07:40:05.922Z,66.23
2018-05-02T07:42:33.393Z,66.05
2018-05-02T07:45:00.854Z,66.62
2018-05-02T07:47:28.334Z,65.29
2018-05-02T07:49:55.789Z,64.23
2018-05-02T07:52:23.269Z,62.78
2018-05-02T07:54:50.729Z,65.58
2018-05-02T07:57:18.201Z,65.75
2018-05-02T07:59:45.665Z,65.05
2018-05-02T08:02:13.151Z,64.14
2018-05-02T08:04:40.606Z,62.53
2018-05-02T08:07:08.076Z,62.71
2018-05-02T08:09:35.566Z,62.04
2018-05-02T08:12:03.050Z,62.03
2018-05-02T08:14:30.501Z,61.91
2018-05-02T08:16:57.989Z,61.90
2018-05-02T08:19:25.442Z,59.62
2018-05-02T08:21:52.917Z,57.81
2018-05-02T08:24:20.576Z,53.66
2018-05-02T08:26:48.006Z,52.62
2018-05-02T08:29:15.470Z,54.88
2018-05-02T08:31:42.945Z,55.86
2018-05-02T08:34:10.447Z,54.01
2018-05-02T08:36:37.912Z,55.56
2018-05-02T08:39:05.388Z,54.10
2018-05-02T08:41:32.846Z,53.81
2018-05-02T08:44:00.321Z,51.37
2018-05-02T08:46:27.784Z,52.14
2018-05-02T08:48:55.308Z,49.56
2018-05-02T08:51:22.770Z,50.36
2018-05-02T08:53:50.253Z,48.99
2018-05-02T08:56:17.704Z,49.53
2018-05-02T08:58:45.193Z,48.78
2018-05-02T09:01:12.655Z,46.96
2018-05-02T09:03:40.173Z,45.38
2018-05-02T09:06:07.933Z,47.47
2018-05-02T09:08:35.482Z,47.71
2018-05-02T09:11:02.936Z,48.36
2018-05-02T09:13:30.419Z,46.16
2018-05-02T09:15:57.876Z,47.33
2018-05-02T09:18:25.348Z,47.87
2018-05-02T09:20:52.823Z,47.29
2018-05-02T09:23:20.314Z,46.77
2018-05-02T09:33:47.618Z,46.90
2018-05-02T09:36:15.118Z,42.19
2018-05-02T09:38:42.597Z,45.53
2018-05-02T09:41:10.054Z,45.36
2018-05-02T09:43:37.534Z,44.64
2018-05-02T09:46:04.987Z,45.02
2018-05-02T09:48:32.469Z,43.86
2018-05-02T09:50:59.930Z,47.30
2018-05-02T09:53:28.329Z,46.27
2018-05-02T09:55:55.794Z,45.39
2018-05-02T09:58:23.266Z,44.96
2018-05-02T10:00:50.726Z,47.17
2018-05-02T10:03:18.857Z,48.79
2018-05-02T10:05:46.313Z,44.29
2018-05-02T10:08:13.790Z,46.24
2018-05-02T10:10:41.249Z,43.78
2018-05-02T10:13:08.734Z,44.31
2018-05-02T10:15:36.200Z,46.29
2018-05-02T10:18:03.692Z,46.94
2018-05-02T10:20:31.163Z,45.04
2018-05-02T10:22:58.662Z,44.81
2018-05-02T10:25:26.120Z,46.59
2018-05-02T10:27:53.601Z,46.17
2018-05-02T10:30:21.054Z,47.23
2018-05-02T10:32:48.545Z,44.52
2018-05-02T10:35:16.034Z,44.69
2018-05-02T10:37:43.496Z,45.38
2018-05-02T10:40:10.985Z,44.34
2018-05-02T10:42:38.442Z,43.47
2018-05-02T10:45:05.921Z,42.64
2018-05-02T10:47:33.382Z,41.79
2018-05-02T10:50:00.889Z,43.60
2018-05-02T10:52:28.345Z,44.37
2018-05-02T10:54:56.671Z,41.68
2018-05-02T10:57:24.131Z,42.16
2018-05-02T10:59:51.633Z,42.16
2018-05-02T11:02:19.094Z,42.79
2018-05-02T11:04:46.582Z,46.71
2018-05-02T11:07:14.051Z,45.03
2018-05-02T11:09:41.532Z,45.64
2018-05-02T11:12:08.981Z,45.83
2018-05-02T11:14:36.457Z,44.24
2018-05-02T11:17:03.923Z,46.27
2018-05-02T11:19:31.449Z,42.82
2018-05-02T11:21:58.958Z,44.92
2018-05-02T11:24:26.399Z,43.93
2018-05-02T11:26:53.867Z,41.26
2018-05-02T11:29:21.354Z,40.59
2018-05-02T11:31:48.818Z,42.67
2018-05-02T11:34:16.293Z,40.69
2018-05-02T11:36:43.815Z,40.10
2018-05-02T11:39:11.290Z,41.94
2018-05-02T11:41:38.746Z,39.85
2018-05-02T11:44:06.230Z,40.93
2018-05-02T11:46:33.684Z,38.76
2018-05-02T11:49:01.222Z,39.09
2018-05-02T11:51:28.682Z,41.47
2018-05-02T11:53:56.167Z,39.80
2018-05-02T11:56:23.633Z,40.46
2018-05-02T11:58:51.121Z,40.34
2018-05-02T12:01:18.571Z,38.41
2018-05-02T12:03:46.045Z,37.89
2018-05-02T12:06:13.510Z,37.39
2018-05-02T12:08:40.980Z,40.42
2018-05-02T12:11:08.457Z,41.49
2018-05-02T12:13:35.905Z,40.41
2018-05-02T12:16:03.388Z,38.46
2018-05-02T12:18:30.842Z,38.84
2018-05-02T12:20:58.328Z,40.92
2018-05-02T12:23:25.813Z,40.09
2018-05-02T12:25:53.297Z,38.68
2018-05-02T12:28:20.754Z,37.75
2018-05-02T12:30:48.242Z,36.45
2018-05-02T12:33:15.703Z,38.96
2018-05-02T12:35:43.193Z,33.73
2018-05-02T12:38:11.862Z,38.20
2018-05-02T12:40:39.378Z,36.57
2018-05-02T12:43:06.828Z,37.23
2018-05-02T12:45:34.312Z,36.33
2018-05-02T12:48:01.769Z,37.33
2018-05-02T12:50:29.255Z,36.33
2018-05-02T12:52:56.717Z,36.17
2018-05-02T12:55:24.287Z,33.87
2018-05-02T12:57:52.622Z,34.84
2018-05-02T13:00:20.105Z,37.36
2018-05-02T13:02:47.569Z,38.39
2018-05-02T13:05:15.046Z,36.56
2018-05-02T13:07:42.501Z,37.55
2018-05-02T13:10:09.977Z,34.38
2018-05-02T13:12:37.438Z,36.67
2018-05-02T13:15:04.980Z,36.42
2018-05-02T13:17:32.441Z,34.47
2018-05-02T13:19:59.928Z,35.38
2018-05-02T13:22:27.383Z,33.15
2018-05-02T13:24:54.868Z,34.10
2018-05-02T13:27:22.339Z,32.52
2018-05-02T13:29:49.821Z,33.98
2018-05-02T13:32:17.282Z,31.83
2018-05-02T13:34:44.769Z,31.85
2018-05-02T13:37:12.230Z,31.61
2018-05-02T13:39:39.709Z,31.81
2018-05-02T13:42:07.168Z,32.55
2018-05-02T13:44:34.627Z,32.66
2018-05-02T13:47:02.110Z,30.96
2018-05-02T13:49:29.563Z,30.56
2018-05-02T13:51:57.068Z,31.95
2018-05-02T13:54:24.530Z,31.03
2018-05-02T13:56:52.013Z,30.35
2018-05-02T13:59:19.465Z,32.74
2018-05-02T14:01:46.971Z,33.43
2018-05-02T14:04:14.435Z,32.85
2018-05-02T14:06:41.916Z,32.83
2018-05-02T14:09:09.370Z,33.75
2018-05-02T14:11:36.851Z,34.23
2018-05-02T14:14:04.310Z,34.78
2018-05-02T14:16:31.796Z,32.94
2018-05-02T14:18:59.262Z,34.76
2018-05-02T14:21:26.746Z,34.72
2018-05-02T14:23:54.221Z,33.60
2018-05-02T14:26:21.705Z,37.60
2018-05-02T14:28:49.167Z,34.29
2018-05-02T14:31:16.650Z,34.24
2018-05-02T14:33:44.115Z,33.91
2018-05-02T14:36:11.594Z,36.10
2018-05-02T14:38:39.067Z,36.53
2018-05-02T14:41:06.553Z,35.34
2018-05-02T14:43:34.014Z,34.19
2018-05-02T14:46:01.517Z,34.99
2018-05-02T14:48:28.975Z,33.96
2018-05-02T14:50:56.488Z,33.66
2018-05-02T14:53:23.999Z,33.80
2018-05-02T14:55:51.529Z,33.43
2018-05-02T14:58:19.033Z,33.73
2018-05-02T15:00:46.554Z,32.63
2018-05-02T15:03:14.063Z,35.66
2018-05-02T15:05:41.819Z,35.14
2018-05-02T15:08:09.365Z,33.99
2018-05-02T15:10:36.902Z,34.25
2018-05-02T15:13:04.432Z,35.27
2018-05-02T15:15:31.972Z,35.36
2018-05-02T15:17:59.562Z,33.64
2018-05-02T15:20:27.014Z,32.60
2018-05-02T15:22:54.645Z,32.16
2018-05-02T15:25:22.202Z,32.83
2018-05-02T15:27:49.692Z,33.71
2018-05-02T15:30:17.293Z,33.35
2018-05-02T15:32:44.821Z,32.95
2018-05-02T15:35:12.402Z,33.58
2018-05-02T15:37:39.927Z,34.75
2018-05-02T15:40:07.413Z,34.72
2018-05-02T15:42:34.982Z,35.36
2018-05-02T15:45:02.492Z,34.41
2018-05-02T15:47:30.009Z,34.59
2018-05-02T15:49:57.601Z,34.16
2018-05-02T15:52:25.118Z,33.50
2018-05-02T15:54:52.700Z,34.51
2018-05-02T15:57:20.208Z,34.59
2018-05-02T15:59:47.680Z,33.68
2018-05-02T16:02:15.198Z,34.06
2018-05-02T16:04:42.698Z,34.46
2018-05-02T16:07:10.285Z,36.32
2018-05-02T16:09:37.806Z,35.77
2018-05-02T16:12:05.376Z,35.26
2018-05-02T16:14:32.874Z,35.49
2018-05-02T16:17:00.408Z,34.97
2018-05-02T16:19:27.907Z,35.51
2018-05-02T16:21:55.527Z,37.63
2018-05-02T16:24:23.035Z,36.81
2018-05-02T16:26:50.567Z,37.52
2018-05-02T16:29:18.066Z,39.33
2018-05-02T16:31:45.639Z,39.39
2018-05-02T16:34:13.178Z,39.94
2018-05-02T16:39:12.370Z,38.74
2018-05-02T16:44:11.542Z,39.42
2018-05-02T16:46:39.060Z,39.70
2018-05-02T16:49:06.533Z,40.59
2018-05-02T16:51:34.280Z,40.10
2018-05-02T16:54:01.871Z,40.28
2018-05-02T16:56:29.444Z,40.72
2018-05-02T16:58:57.031Z,42.11
2018-05-02T17:01:24.564Z,41.61
2018-05-02T17:03:52.102Z,42.59
2018-05-02T17:06:22.576Z,42.29
2018-05-02T17:08:50.138Z,42.81
2018-05-02T17:11:17.794Z,42.66
2018-05-02T17:13:45.218Z,44.15
2018-05-02T17:16:12.686Z,44.80
2018-05-02T17:18:40.238Z,44.86
2018-05-02T17:21:07.732Z,45.26
2018-05-02T17:23:35.466Z,44.71
2018-05-02T17:26:06.881Z,44.49
2018-05-02T17:28:34.492Z,44.47
2018-05-02T17:31:02.019Z,43.78
2018-05-02T17:33:29.570Z,44.60
2018-05-02T17:35:57.150Z,45.50
2018-05-02T17:38:24.711Z,44.93
2018-05-02T17:40:52.258Z,45.47
2018-05-02T17:43:19.733Z,45.43
2018-05-02T17:45:47.290Z,45.91
2018-05-02T17:48:14.846Z,46.00
2018-05-02T17:50:42.318Z,46.82
2018-05-02T17:53:09.857Z,47.82
2018-05-02T17:55:37.764Z,48.22
2018-05-02T17:58:05.317Z,48.23
2018-05-02T18:00:32.818Z,49.00
2018-05-02T18:03:00.386Z,49.26
2018-05-02T18:05:28.030Z,49.82
2018-05-02T18:07:55.499Z,49.83
2018-05-02T18:10:23.023Z,50.28
2018-05-02T18:12:50.501Z,50.76
2018-05-02T18:15:18.269Z,51.17
2018-05-02T18:17:45.805Z,51.63
2018-05-02T18:20:13.395Z,51.91
2018-05-02T18:22:40.926Z,51.15
2018-05-02T18:25:08.693Z,51.30
2018-05-02T18:27:36.198Z,52.04
2018-05-02T18:30:03.954Z,52.04
2018-05-02T18:32:31.466Z,52.60
2018-05-02T18:34:58.955Z,53.74
2018-05-02T18:37:26.447Z,53.58
2018-05-02T18:39:54.059Z,53.09
2018-05-02T18:42:21.586Z,54.59
2018-05-02T18:44:49.154Z,53.99
2018-05-02T18:47:16.646Z,54.27
2018-05-02T18:49:44.173Z,56.45
2018-05-02T18:52:11.642Z,56.48
2018-05-02T18:54:39.159Z,55.41
2018-05-02T18:57:07.385Z,55.24
2018-05-02T18:59:34.898Z,56.20
2018-05-02T19:02:02.367Z,57.34
2018-05-02T19:04:29.879Z,56.04
2018-05-02T19:06:57.394Z,57.02
2018-05-02T19:09:24.987Z,57.37
2018-05-02T19:11:52.503Z,57.30
2018-05-02T19:14:20.014Z,57.07
2018-05-02T19:16:47.514Z,57.49
2018-05-02T19:19:20.609Z,57.35
2018-05-02T19:21:48.522Z,56.81
2018-05-02T19:24:16.053Z,58.12
2018-05-02T19:26:43.673Z,60.36
2018-05-02T19:29:11.197Z,58.89
2018-05-02T19:31:44.310Z,59.55
2018-05-02T19:34:11.928Z,59.56
2018-05-02T19:36:39.432Z,60.13
2018-05-02T19:39:07.912Z,59.60
2018-05-02T19:41:40.893Z,60.83
2018-05-02T19:44:08.928Z,59.95
2018-05-02T19:46:36.514Z,60.42
2018-05-02T19:49:04.054Z,61.59
2018-05-02T19:51:37.110Z,61.62
2018-05-02T19:54:04.696Z,62.08
2018-05-02T19:56:32.184Z,61.32
2018-05-02T19:58:59.702Z,61.21
2018-05-02T20:01:32.693Z,61.56
2018-05-02T20:04:00.275Z,61.71
2018-05-02T20:06:27.865Z,63.75
2018-05-02T20:09:01.006Z,63.04
2018-05-02T20:11:33.990Z,63.56
2018-05-02T20:14:05.423Z,64.51
2018-05-02T20:16:32.942Z,62.93
2018-05-02T20:19:00.489Z,61.24
2018-05-02T20:21:28.014Z,60.90
2018-05-02T20:23:55.546Z,59.92
2018-05-02T20:26:23.260Z,59.62
2018-05-02T20:28:50.778Z,58.74
2018-05-02T20:31:18.949Z,58.99
2018-05-02T20:33:46.469Z,59.45
2018-05-02T20:36:14.058Z,60.91
2018-05-02T20:38:41.579Z,61.26
2018-05-02T20:41:09.290Z,61.68
2018-05-02T20:43:37.132Z,61.54
2018-05-02T20:46:04.707Z,61.27
2018-05-02T20:48:32.200Z,60.64
2018-05-02T20:50:59.783Z,61.14
2018-05-02T20:53:27.307Z,60.96
2018-05-02T20:55:54.932Z,60.74
2018-05-02T20:58:22.850Z,60.16
2018-05-02T21:00:50.404Z,60.21
2018-05-02T21:03:17.909Z,60.24
2018-05-02T21:05:45.512Z,60.36
2018-05-02T21:08:13.104Z,60.88
2018-05-02T21:10:40.757Z,61.58
2018-05-02T21:13:08.269Z,62.30
2018-05-02T21:15:35.858Z,61.58
2018-05-02T21:18:03.397Z,62.59
2018-05-02T21:20:31.011Z,61.92
2018-05-02T21:22:58.542Z,61.84
2018-05-02T21:25:26.090Z,61.50
2018-05-02T21:27:53.675Z,61.84
2018-05-02T21:30:21.242Z,62.48
2018-05-02T21:32:48.743Z,63.28
2018-05-02T21:35:16.273Z,63.45
2018-05-02T21:37:43.857Z,63.54
2018-05-02T21:40:11.394Z,63.89
2018-05-02T21:42:38.915Z,63.84
2018-05-02T21:45:06.435Z,63.97
2018-05-02T21:47:33.937Z,64.13
2018-05-02T21:50:01.689Z,64.03
2018-05-02T21:52:29.184Z,64.46
2018-05-02T21:54:56.746Z,65.25
2018-05-02T21:57:24.229Z,66.98
2018-05-02T21:59:51.987Z,66.73
2018-05-02T22:02:19.546Z,67.01
2018-05-02T22:04:47.077Z,67.89
2018-05-02T22:07:14.557Z,67.31
2018-05-02T22:09:42.267Z,67.80
2018-05-02T22:12:09.789Z,67.01
2018-05-02T22:14:37.332Z,66.97
2018-05-02T22:17:04.862Z,67.13
2018-05-02T22:19:32.389Z,66.37
2018-05-02T22:24:35.833Z,64.94
2018-05-02T22:27:03.394Z,65.32
2018-05-02T22:29:30.869Z,65.64
2018-05-02T22:31:58.424Z,66.03
2018-05-02T22:34:26.003Z,66.57
2018-05-02T22:36:53.497Z,66.05
2018-05-02T22:39:21.010Z,66.49
2018-05-02T22:41:48.566Z,66.27
2018-05-02T22:44:16.074Z,66.29
2018-05-02T22:46:43.607Z,65.70
2018-05-02T22:49:11.124Z,65.28
2018-05-02T22:51:38.631Z,66.38
2018-05-02T22:54:06.147Z,66.20
2018-05-02T22:56:33.755Z,67.20
2018-05-02T22:59:01.252Z,66.92
2018-05-02T23:01:28.844Z,67.90
2018-05-02T23:03:57.453Z,68.38
2018-05-02T23:06:24.966Z,69.83
2018-05-02T23:08:52.518Z,70.77
2018-05-02T23:11:20.109Z,71.15
2018-05-02T23:13:47.625Z,71.75
2018-05-02T23:16:15.957Z,71.67
2018-05-02T23:18:43.511Z,72.36
2018-05-02T23:21:11.030Z,72.46
2018-05-02T23:23:38.539Z,72.60
2018-05-02T23:26:06.167Z,73.10
2018-05-02T23:28:33.662Z,73.25
2018-05-02T23:31:01.192Z,73.21
2018-05-02T23:33:28.710Z,73.52
2018-05-02T23:35:56.266Z,73.71
2018-05-02T23:38:23.757Z,73.46
2018-05-02T23:40:51.298Z,74.29
2018-05-02T23:43:18.825Z,74.46
2018-05-02T23:45:46.364Z,74.58
2018-05-02T23:48:13.862Z,74.58
2018-05-02T23:50:41.404Z,74.09
2018-05-02T23:53:08.897Z,74.37
2018-05-02T23:55:36.414Z,73.84
2018-05-02T23:58:03.890Z,72.82
